sensor_id;sensor_type;location;lat;lon;timestamp;P1;durP1;ratioP1;P2;durP2;ratioP2
72649;SDS011;61467;50.674;4.618;2024-03-22T00:01:16;35.63;;;17.70;;
72649;SDS011;61467;50.674;4.618;2024-03-22T00:03:43;37.72;;;18.00;;
72649;SDS011;61467;50.674;4.618;2024-03-22T00:06:11;36.58;;;17.70;;
72649;SDS011;61467;50.674;4.618;2024-03-22T00:08:37;39.33;;;18.42;;
72649;SDS011;61467;50.674;4.618;2024-03-22T00:11:04;36.17;;;17.60;;
72649;SDS011;61467;50.674;4.618;2024-03-22T00:13:30;39.95;;;19.85;;
72649;SDS011;61467;50.674;4.618;2024-03-22T00:15:57;37.65;;;18.75;;
72649;SDS011;61467;50.674;4.618;2024-03-22T00:18:23;40.42;;;18.02;;
72649;SDS011;61467;50.674;4.618;2024-03-22T00:20:51;35.80;;;18.35;;
72649;SDS011;61467;50.674;4.618;2024-03-22T00:23:17;41.13;;;19.10;;
72649;SDS011;61467;50.674;4.618;2024-03-22T00:25:44;37.42;;;19.65;;
72649;SDS011;61467;50.674;4.618;2024-03-22T00:28:10;40.75;;;20.02;;
72649;SDS011;61467;50.674;4.618;2024-03-22T00:30:37;40.53;;;19.55;;
72649;SDS011;61467;50.674;4.618;2024-03-22T00:33:03;39.20;;;19.27;;
72649;SDS011;61467;50.674;4.618;2024-03-22T00:35:30;41.78;;;20.05;;
72649;SDS011;61467;50.674;4.618;2024-03-22T00:37:57;38.55;;;19.90;;
72649;SDS011;61467;50.674;4.618;2024-03-22T00:40:24;36.90;;;18.65;;
72649;SDS011;61467;50.674;4.618;2024-03-22T00:42:50;39.70;;;19.90;;
72649;SDS011;61467;50.674;4.618;2024-03-22T00:45:17;41.40;;;20.55;;
72649;SDS011;61467;50.674;4.618;2024-03-22T00:47:43;40.83;;;20.13;;
72649;SDS011;61467;50.674;4.618;2024-03-22T00:50:10;44.08;;;21.10;;
72649;SDS011;61467;50.674;4.618;2024-03-22T00:52:36;40.17;;;20.60;;
72649;SDS011;61467;50.674;4.618;2024-03-22T00:55:04;40.83;;;20.20;;
72649;SDS011;61467;50.674;4.618;2024-03-22T00:57:30;42.03;;;20.13;;
72649;SDS011;61467;50.674;4.618;2024-03-22T00:59:57;39.58;;;18.92;;
72649;SDS011;61467;50.674;4.618;2024-03-22T01:02:23;43.97;;;20.73;;
72649;SDS011;61467;50.674;4.618;2024-03-22T01:04:50;40.90;;;20.17;;
72649;SDS011;61467;50.674;4.618;2024-03-22T01:07:16;39.63;;;20.58;;
72649;SDS011;61467;50.674;4.618;2024-03-22T01:09:43;40.60;;;19.88;;
72649;SDS011;61467;50.674;4.618;2024-03-22T01:12:11;43.80;;;21.15;;
72649;SDS011;61467;50.674;4.618;2024-03-22T01:14:38;41.45;;;20.52;;
72649;SDS011;61467;50.674;4.618;2024-03-22T01:17:04;44.53;;;19.77;;
72649;SDS011;61467;50.674;4.618;2024-03-22T01:19:31;39.42;;;20.55;;
72649;SDS011;61467;50.674;4.618;2024-03-22T01:21:56;39.40;;;19.95;;
72649;SDS011;61467;50.674;4.618;2024-03-22T01:24:23;41.60;;;20.27;;
72649;SDS011;61467;50.674;4.618;2024-03-22T01:26:49;41.53;;;19.13;;
72649;SDS011;61467;50.674;4.618;2024-03-22T01:29:18;36.67;;;18.88;;
72649;SDS011;61467;50.674;4.618;2024-03-22T01:31:43;39.88;;;18.63;;
72649;SDS011;61467;50.674;4.618;2024-03-22T01:34:10;36.15;;;18.50;;
72649;SDS011;61467;50.674;4.618;2024-03-22T01:36:36;38.90;;;19.67;;
72649;SDS011;61467;50.674;4.618;2024-03-22T01:39:03;38.65;;;19.70;;
72649;SDS011;61467;50.674;4.618;2024-03-22T01:41:29;39.03;;;20.00;;
72649;SDS011;61467;50.674;4.618;2024-03-22T01:43:56;36.65;;;19.00;;
72649;SDS011;61467;50.674;4.618;2024-03-22T01:46:24;38.33;;;19.67;;
72649;SDS011;61467;50.674;4.618;2024-03-22T01:48:51;37.67;;;18.33;;
72649;SDS011;61467;50.674;4.618;2024-03-22T01:51:18;37.63;;;19.40;;
72649;SDS011;61467;50.674;4.618;2024-03-22T01:53:45;39.67;;;19.00;;
72649;SDS011;61467;50.674;4.618;2024-03-22T01:56:11;35.13;;;18.48;;
72649;SDS011;61467;50.674;4.618;2024-03-22T01:58:39;37.33;;;18.90;;
72649;SDS011;61467;50.674;4.618;2024-03-22T02:01:06;40.20;;;18.85;;
72649;SDS011;61467;50.674;4.618;2024-03-22T02:03:34;37.85;;;19.52;;
72649;SDS011;61467;50.674;4.618;2024-03-22T02:06:00;36.42;;;18.25;;
72649;SDS011;61467;50.674;4.618;2024-03-22T02:08:28;37.50;;;18.60;;
72649;SDS011;61467;50.674;4.618;2024-03-22T02:10:53;40.97;;;19.40;;
72649;SDS011;61467;50.674;4.618;2024-03-22T02:13:20;39.05;;;19.63;;
72649;SDS011;61467;50.674;4.618;2024-03-22T02:15:46;35.83;;;19.27;;
72649;SDS011;61467;50.674;4.618;2024-03-22T02:18:13;37.58;;;19.13;;
72649;SDS011;61467;50.674;4.618;2024-03-22T02:20:41;37.53;;;18.90;;
72649;SDS011;61467;50.674;4.618;2024-03-22T02:23:07;35.05;;;18.08;;
72649;SDS011;61467;50.674;4.618;2024-03-22T02:25:35;38.10;;;19.05;;
72649;SDS011;61467;50.674;4.618;2024-03-22T02:28:02;37.20;;;18.02;;
72649;SDS011;61467;50.674;4.618;2024-03-22T02:30:28;39.37;;;18.40;;
72649;SDS011;61467;50.674;4.618;2024-03-22T02:32:55;34.92;;;18.63;;
72649;SDS011;61467;50.674;4.618;2024-03-22T02:35:21;37.45;;;17.85;;
72649;SDS011;61467;50.674;4.618;2024-03-22T02:37:48;37.78;;;18.52;;
72649;SDS011;61467;50.674;4.618;2024-03-22T02:40:14;35.97;;;18.77;;
72649;SDS011;61467;50.674;4.618;2024-03-22T02:42:42;33.35;;;17.40;;
72649;SDS011;61467;50.674;4.618;2024-03-22T02:45:08;34.33;;;17.48;;
72649;SDS011;61467;50.674;4.618;2024-03-22T02:47:35;35.75;;;18.38;;
72649;SDS011;61467;50.674;4.618;2024-03-22T02:50:01;34.77;;;16.93;;
72649;SDS011;61467;50.674;4.618;2024-03-22T02:52:28;35.75;;;17.35;;
72649;SDS011;61467;50.674;4.618;2024-03-22T02:54:54;35.03;;;17.80;;
72649;SDS011;61467;50.674;4.618;2024-03-22T02:57:21;33.78;;;17.88;;
72649;SDS011;61467;50.674;4.618;2024-03-22T02:59:48;33.47;;;15.87;;
72649;SDS011;61467;50.674;4.618;2024-03-22T03:02:15;34.58;;;17.50;;
72649;SDS011;61467;50.674;4.618;2024-03-22T03:04:41;32.47;;;16.52;;
72649;SDS011;61467;50.674;4.618;2024-03-22T03:07:08;33.55;;;17.23;;
72649;SDS011;61467;50.674;4.618;2024-03-22T03:09:34;31.50;;;16.20;;
72649;SDS011;61467;50.674;4.618;2024-03-22T03:12:01;31.83;;;16.83;;
72649;SDS011;61467;50.674;4.618;2024-03-22T03:14:27;33.78;;;15.70;;
72649;SDS011;61467;50.674;4.618;2024-03-22T03:16:55;30.30;;;13.70;;
72649;SDS011;61467;50.674;4.618;2024-03-22T03:19:21;34.03;;;16.00;;
72649;SDS011;61467;50.674;4.618;2024-03-22T03:21:48;28.33;;;14.40;;
72649;SDS011;61467;50.674;4.618;2024-03-22T03:24:14;31.90;;;15.88;;
72649;SDS011;61467;50.674;4.618;2024-03-22T03:26:41;35.33;;;16.35;;
72649;SDS011;61467;50.674;4.618;2024-03-22T03:29:07;33.30;;;15.17;;
72649;SDS011;61467;50.674;4.618;2024-03-22T03:31:35;32.53;;;15.80;;
72649;SDS011;61467;50.674;4.618;2024-03-22T03:34:02;30.48;;;15.10;;
72649;SDS011;61467;50.674;4.618;2024-03-22T03:36:29;31.02;;;14.93;;
72649;SDS011;61467;50.674;4.618;2024-03-22T03:38:55;30.13;;;15.87;;
72649;SDS011;61467;50.674;4.618;2024-03-22T03:41:22;31.97;;;15.67;;
72649;SDS011;61467;50.674;4.618;2024-03-22T03:43:48;34.53;;;15.15;;
72649;SDS011;61467;50.674;4.618;2024-03-22T03:46:15;35.15;;;14.75;;
72649;SDS011;61467;50.674;4.618;2024-03-22T03:48:41;31.05;;;15.35;;
72649;SDS011;61467;50.674;4.618;2024-03-22T03:51:09;25.97;;;13.67;;
72649;SDS011;61467;50.674;4.618;2024-03-22T03:53:35;30.95;;;15.30;;
72649;SDS011;61467;50.674;4.618;2024-03-22T03:56:02;32.10;;;14.40;;
72649;SDS011;61467;50.674;4.618;2024-03-22T03:58:28;30.27;;;13.95;;
72649;SDS011;61467;50.674;4.618;2024-03-22T04:00:55;29.50;;;13.32;;
72649;SDS011;61467;50.674;4.618;2024-03-22T04:03:21;29.30;;;14.30;;
72649;SDS011;61467;50.674;4.618;2024-03-22T04:05:55;30.92;;;14.30;;
72649;SDS011;61467;50.674;4.618;2024-03-22T04:08:23;27.40;;;12.88;;
72649;SDS011;61467;50.674;4.618;2024-03-22T04:10:51;30.40;;;14.23;;
72649;SDS011;61467;50.674;4.618;2024-03-22T04:13:17;30.27;;;14.48;;
72649;SDS011;61467;50.674;4.618;2024-03-22T04:15:44;26.53;;;13.57;;
72649;SDS011;61467;50.674;4.618;2024-03-22T04:18:10;28.40;;;13.82;;
72649;SDS011;61467;50.674;4.618;2024-03-22T04:20:37;27.42;;;14.15;;
72649;SDS011;61467;50.674;4.618;2024-03-22T04:23:03;30.67;;;14.17;;
72649;SDS011;61467;50.674;4.618;2024-03-22T04:25:31;31.53;;;14.13;;
72649;SDS011;61467;50.674;4.618;2024-03-22T04:27:57;26.05;;;12.63;;
72649;SDS011;61467;50.674;4.618;2024-03-22T04:30:24;29.40;;;12.85;;
72649;SDS011;61467;50.674;4.618;2024-03-22T04:32:50;26.83;;;12.77;;
72649;SDS011;61467;50.674;4.618;2024-03-22T04:35:17;26.37;;;13.50;;
72649;SDS011;61467;50.674;4.618;2024-03-22T04:37:43;26.55;;;12.55;;
72649;SDS011;61467;50.674;4.618;2024-03-22T04:40:10;26.40;;;13.13;;
72649;SDS011;61467;50.674;4.618;2024-03-22T04:42:40;25.42;;;12.38;;
72649;SDS011;61467;50.674;4.618;2024-03-22T04:45:07;25.33;;;12.05;;
72649;SDS011;61467;50.674;4.618;2024-03-22T04:47:34;26.40;;;12.90;;
72649;SDS011;61467;50.674;4.618;2024-03-22T04:50:02;27.65;;;12.45;;
72649;SDS011;61467;50.674;4.618;2024-03-22T04:52:30;26.58;;;12.68;;
72649;SDS011;61467;50.674;4.618;2024-03-22T04:54:56;26.00;;;11.75;;
72649;SDS011;61467;50.674;4.618;2024-03-22T04:57:23;25.65;;;12.63;;
72649;SDS011;61467;50.674;4.618;2024-03-22T04:59:50;27.53;;;12.90;;
72649;SDS011;61467;50.674;4.618;2024-03-22T05:02:18;24.42;;;12.57;;
72649;SDS011;61467;50.674;4.618;2024-03-22T05:04:43;28.05;;;13.18;;
72649;SDS011;61467;50.674;4.618;2024-03-22T05:07:10;26.55;;;12.13;;
72649;SDS011;61467;50.674;4.618;2024-03-22T05:09:36;26.30;;;12.37;;
72649;SDS011;61467;50.674;4.618;2024-03-22T05:12:03;25.17;;;11.80;;
72649;SDS011;61467;50.674;4.618;2024-03-22T05:14:30;24.77;;;12.00;;
72649;SDS011;61467;50.674;4.618;2024-03-22T05:16:59;25.10;;;11.55;;
72649;SDS011;61467;50.674;4.618;2024-03-22T05:19:24;24.40;;;12.15;;
72649;SDS011;61467;50.674;4.618;2024-03-22T05:21:51;28.07;;;11.90;;
72649;SDS011;61467;50.674;4.618;2024-03-22T05:24:17;24.88;;;12.90;;
72649;SDS011;61467;50.674;4.618;2024-03-22T05:26:44;25.35;;;12.80;;
72649;SDS011;61467;50.674;4.618;2024-03-22T05:29:10;25.70;;;12.85;;
72649;SDS011;61467;50.674;4.618;2024-03-22T05:31:46;27.67;;;12.70;;
72649;SDS011;61467;50.674;4.618;2024-03-22T05:34:14;25.75;;;11.57;;
72649;SDS011;61467;50.674;4.618;2024-03-22T05:36:41;27.33;;;12.80;;
72649;SDS011;61467;50.674;4.618;2024-03-22T05:39:08;28.00;;;12.95;;
72649;SDS011;61467;50.674;4.618;2024-03-22T05:41:37;25.83;;;12.63;;
72649;SDS011;61467;50.674;4.618;2024-03-22T05:44:03;28.17;;;13.03;;
72649;SDS011;61467;50.674;4.618;2024-03-22T05:46:31;25.88;;;12.68;;
72649;SDS011;61467;50.674;4.618;2024-03-22T05:48:57;25.83;;;12.75;;
72649;SDS011;61467;50.674;4.618;2024-03-22T05:51:25;25.85;;;13.35;;
72649;SDS011;61467;50.674;4.618;2024-03-22T05:53:51;26.88;;;12.55;;
72649;SDS011;61467;50.674;4.618;2024-03-22T05:56:18;25.33;;;12.50;;
72649;SDS011;61467;50.674;4.618;2024-03-22T05:58:45;29.17;;;13.60;;
72649;SDS011;61467;50.674;4.618;2024-03-22T06:01:12;29.58;;;13.63;;
72649;SDS011;61467;50.674;4.618;2024-03-22T06:03:37;27.15;;;13.52;;
72649;SDS011;61467;50.674;4.618;2024-03-22T06:06:04;27.80;;;13.20;;
72649;SDS011;61467;50.674;4.618;2024-03-22T06:08:32;27.30;;;13.48;;
72649;SDS011;61467;50.674;4.618;2024-03-22T06:11:00;27.40;;;13.23;;
72649;SDS011;61467;50.674;4.618;2024-03-22T06:13:27;26.67;;;12.48;;
72649;SDS011;61467;50.674;4.618;2024-03-22T06:15:57;28.15;;;13.77;;
72649;SDS011;61467;50.674;4.618;2024-03-22T06:18:23;27.23;;;13.00;;
72649;SDS011;61467;50.674;4.618;2024-03-22T06:20:50;27.67;;;13.75;;
72649;SDS011;61467;50.674;4.618;2024-03-22T06:23:16;31.30;;;14.45;;
72649;SDS011;61467;50.674;4.618;2024-03-22T06:25:52;25.38;;;13.00;;
72649;SDS011;61467;50.674;4.618;2024-03-22T06:28:18;29.38;;;14.80;;
72649;SDS011;61467;50.674;4.618;2024-03-22T06:30:44;30.77;;;14.03;;
72649;SDS011;61467;50.674;4.618;2024-03-22T06:33:11;30.48;;;14.63;;
72649;SDS011;61467;50.674;4.618;2024-03-22T06:35:38;25.45;;;13.50;;
72649;SDS011;61467;50.674;4.618;2024-03-22T06:38:04;26.88;;;13.05;;
72649;SDS011;61467;50.674;4.618;2024-03-22T06:40:31;28.55;;;13.75;;
72649;SDS011;61467;50.674;4.618;2024-03-22T06:42:59;30.07;;;14.00;;
72649;SDS011;61467;50.674;4.618;2024-03-22T06:45:26;28.02;;;13.27;;
72649;SDS011;61467;50.674;4.618;2024-03-22T06:47:52;26.85;;;13.10;;
72649;SDS011;61467;50.674;4.618;2024-03-22T06:50:19;27.35;;;13.82;;
72649;SDS011;61467;50.674;4.618;2024-03-22T06:52:49;27.70;;;12.80;;
72649;SDS011;61467;50.674;4.618;2024-03-22T06:55:16;27.52;;;12.18;;
72649;SDS011;61467;50.674;4.618;2024-03-22T06:57:42;27.08;;;14.10;;
72649;SDS011;61467;50.674;4.618;2024-03-22T07:00:12;29.38;;;14.48;;
72649;SDS011;61467;50.674;4.618;2024-03-22T07:02:38;31.67;;;14.98;;
72649;SDS011;61467;50.674;4.618;2024-03-22T07:05:06;32.43;;;14.87;;
72649;SDS011;61467;50.674;4.618;2024-03-22T07:07:32;34.67;;;15.57;;
72649;SDS011;61467;50.674;4.618;2024-03-22T07:10:00;31.30;;;15.07;;
72649;SDS011;61467;50.674;4.618;2024-03-22T07:12:26;31.13;;;14.85;;
72649;SDS011;61467;50.674;4.618;2024-03-22T07:14:53;35.90;;;16.85;;
72649;SDS011;61467;50.674;4.618;2024-03-22T07:17:20;35.60;;;16.07;;
72649;SDS011;61467;50.674;4.618;2024-03-22T07:19:49;32.75;;;15.73;;
72649;SDS011;61467;50.674;4.618;2024-03-22T07:22:16;30.23;;;14.43;;
72649;SDS011;61467;50.674;4.618;2024-03-22T07:24:43;31.10;;;13.93;;
72649;SDS011;61467;50.674;4.618;2024-03-22T07:27:10;28.98;;;13.05;;
72649;SDS011;61467;50.674;4.618;2024-03-22T07:29:37;28.87;;;12.53;;
72649;SDS011;61467;50.674;4.618;2024-03-22T07:32:03;28.63;;;13.38;;
72649;SDS011;61467;50.674;4.618;2024-03-22T07:34:32;27.30;;;13.00;;
72649;SDS011;61467;50.674;4.618;2024-03-22T07:36:58;26.98;;;11.95;;
72649;SDS011;61467;50.674;4.618;2024-03-22T07:39:25;28.55;;;12.75;;
72649;SDS011;61467;50.674;4.618;2024-03-22T07:41:51;27.57;;;12.43;;
72649;SDS011;61467;50.674;4.618;2024-03-22T07:44:18;27.33;;;13.43;;
72649;SDS011;61467;50.674;4.618;2024-03-22T07:46:45;27.60;;;14.23;;
72649;SDS011;61467;50.674;4.618;2024-03-22T07:49:12;28.90;;;13.98;;
72649;SDS011;61467;50.674;4.618;2024-03-22T07:51:39;29.95;;;13.40;;
72649;SDS011;61467;50.674;4.618;2024-03-22T07:54:06;33.50;;;14.37;;
72649;SDS011;61467;50.674;4.618;2024-03-22T07:56:32;26.40;;;13.20;;
72649;SDS011;61467;50.674;4.618;2024-03-22T07:58:59;28.48;;;12.23;;
72649;SDS011;61467;50.674;4.618;2024-03-22T08:01:25;28.75;;;11.65;;
72649;SDS011;61467;50.674;4.618;2024-03-22T08:03:52;25.08;;;11.93;;
72649;SDS011;61467;50.674;4.618;2024-03-22T08:06:18;21.70;;;10.17;;
72649;SDS011;61467;50.674;4.618;2024-03-22T08:08:47;21.60;;;10.18;;
72649;SDS011;61467;50.674;4.618;2024-03-22T08:11:12;20.55;;;8.48;;
72649;SDS011;61467;50.674;4.618;2024-03-22T08:13:39;19.75;;;8.73;;
72649;SDS011;61467;50.674;4.618;2024-03-22T08:16:05;18.57;;;8.67;;
72649;SDS011;61467;50.674;4.618;2024-03-22T08:18:32;17.58;;;7.72;;
72649;SDS011;61467;50.674;4.618;2024-03-22T08:20:58;20.20;;;8.48;;
72649;SDS011;61467;50.674;4.618;2024-03-22T08:23:25;16.10;;;7.35;;
72649;SDS011;61467;50.674;4.618;2024-03-22T08:25:53;20.70;;;8.23;;
72649;SDS011;61467;50.674;4.618;2024-03-22T08:28:20;16.90;;;8.17;;
72649;SDS011;61467;50.674;4.618;2024-03-22T08:30:45;16.48;;;8.10;;
72649;SDS011;61467;50.674;4.618;2024-03-22T08:33:12;18.33;;;7.68;;
72649;SDS011;61467;50.674;4.618;2024-03-22T08:35:38;17.43;;;7.70;;
72649;SDS011;61467;50.674;4.618;2024-03-22T08:38:06;19.13;;;8.03;;
72649;SDS011;61467;50.674;4.618;2024-03-22T08:40:35;18.23;;;8.13;;
72649;SDS011;61467;50.674;4.618;2024-03-22T08:43:06;15.65;;;6.95;;
72649;SDS011;61467;50.674;4.618;2024-03-22T08:45:32;19.13;;;7.97;;
72649;SDS011;61467;50.674;4.618;2024-03-22T08:47:59;19.88;;;8.25;;
72649;SDS011;61467;50.674;4.618;2024-03-22T08:50:25;19.43;;;8.90;;
72649;SDS011;61467;50.674;4.618;2024-03-22T08:52:52;19.42;;;8.30;;
72649;SDS011;61467;50.674;4.618;2024-03-22T08:55:18;20.45;;;9.02;;
72649;SDS011;61467;50.674;4.618;2024-03-22T08:57:45;19.30;;;8.63;;
72649;SDS011;61467;50.674;4.618;2024-03-22T09:00:13;20.37;;;8.73;;
72649;SDS011;61467;50.674;4.618;2024-03-22T09:02:40;21.65;;;8.80;;
72649;SDS011;61467;50.674;4.618;2024-03-22T09:05:06;17.20;;;7.88;;
72649;SDS011;61467;50.674;4.618;2024-03-22T09:07:33;18.20;;;8.05;;
72649;SDS011;61467;50.674;4.618;2024-03-22T09:09:59;18.27;;;8.20;;
72649;SDS011;61467;50.674;4.618;2024-03-22T09:12:26;19.40;;;8.38;;
72649;SDS011;61467;50.674;4.618;2024-03-22T09:14:53;18.17;;;8.35;;
72649;SDS011;61467;50.674;4.618;2024-03-22T09:17:21;16.98;;;7.93;;
72649;SDS011;61467;50.674;4.618;2024-03-22T09:19:47;19.30;;;9.05;;
72649;SDS011;61467;50.674;4.618;2024-03-22T09:22:14;18.63;;;7.73;;
72649;SDS011;61467;50.674;4.618;2024-03-22T09:24:40;16.98;;;7.68;;
72649;SDS011;61467;50.674;4.618;2024-03-22T09:27:07;18.33;;;8.38;;
72649;SDS011;61467;50.674;4.618;2024-03-22T09:29:35;16.88;;;8.13;;
72649;SDS011;61467;50.674;4.618;2024-03-22T09:32:02;16.55;;;7.72;;
72649;SDS011;61467;50.674;4.618;2024-03-22T09:34:30;20.70;;;8.13;;
72649;SDS011;61467;50.674;4.618;2024-03-22T09:36:57;17.73;;;7.70;;
72649;SDS011;61467;50.674;4.618;2024-03-22T09:39:24;15.80;;;7.68;;
72649;SDS011;61467;50.674;4.618;2024-03-22T09:41:52;16.65;;;8.13;;
72649;SDS011;61467;50.674;4.618;2024-03-22T09:44:23;17.98;;;8.38;;
72649;SDS011;61467;50.674;4.618;2024-03-22T09:46:52;17.60;;;8.03;;
72649;SDS011;61467;50.674;4.618;2024-03-22T09:49:19;18.27;;;8.18;;
72649;SDS011;61467;50.674;4.618;2024-03-22T09:51:46;16.52;;;7.43;;
72649;SDS011;61467;50.674;4.618;2024-03-22T09:54:15;16.05;;;7.28;;
72649;SDS011;61467;50.674;4.618;2024-03-22T09:56:40;15.43;;;7.80;;
72649;SDS011;61467;50.674;4.618;2024-03-22T09:59:08;18.20;;;8.02;;
72649;SDS011;61467;50.674;4.618;2024-03-22T10:01:35;18.58;;;8.73;;
72649;SDS011;61467;50.674;4.618;2024-03-22T10:04:03;17.98;;;8.90;;
72649;SDS011;61467;50.674;4.618;2024-03-22T10:06:29;17.90;;;8.53;;
72649;SDS011;61467;50.674;4.618;2024-03-22T10:08:59;19.70;;;9.35;;
72649;SDS011;61467;50.674;4.618;2024-03-22T10:11:25;19.13;;;9.15;;
72649;SDS011;61467;50.674;4.618;2024-03-22T10:13:53;20.30;;;9.45;;
72649;SDS011;61467;50.674;4.618;2024-03-22T10:16:20;20.98;;;9.73;;
72649;SDS011;61467;50.674;4.618;2024-03-22T10:18:47;22.07;;;10.07;;
72649;SDS011;61467;50.674;4.618;2024-03-22T10:21:16;21.38;;;9.85;;
72649;SDS011;61467;50.674;4.618;2024-03-22T10:23:44;23.35;;;10.70;;
72649;SDS011;61467;50.674;4.618;2024-03-22T10:26:13;22.55;;;10.50;;
72649;SDS011;61467;50.674;4.618;2024-03-22T10:28:44;23.98;;;10.68;;
72649;SDS011;61467;50.674;4.618;2024-03-22T10:31:10;27.17;;;11.40;;
72649;SDS011;61467;50.674;4.618;2024-03-22T10:33:38;22.98;;;10.77;;
72649;SDS011;61467;50.674;4.618;2024-03-22T10:36:05;22.35;;;11.70;;
72649;SDS011;61467;50.674;4.618;2024-03-22T10:38:33;26.15;;;12.10;;
72649;SDS011;61467;50.674;4.618;2024-03-22T10:41:03;22.35;;;11.43;;
72649;SDS011;61467;50.674;4.618;2024-03-22T10:43:32;23.53;;;11.50;;
72649;SDS011;61467;50.674;4.618;2024-03-22T10:46:00;22.92;;;10.93;;
72649;SDS011;61467;50.674;4.618;2024-03-22T10:48:29;21.08;;;10.27;;
72649;SDS011;61467;50.674;4.618;2024-03-22T10:50:55;20.33;;;10.27;;
72649;SDS011;61467;50.674;4.618;2024-03-22T10:53:26;19.33;;;8.90;;
72649;SDS011;61467;50.674;4.618;2024-03-22T10:55:54;20.47;;;9.20;;
72649;SDS011;61467;50.674;4.618;2024-03-22T10:58:25;18.00;;;9.38;;
72649;SDS011;61467;50.674;4.618;2024-03-22T11:00:52;19.00;;;9.55;;
72649;SDS011;61467;50.674;4.618;2024-03-22T11:03:20;18.77;;;8.98;;
72649;SDS011;61467;50.674;4.618;2024-03-22T11:05:48;20.60;;;9.80;;
72649;SDS011;61467;50.674;4.618;2024-03-22T11:08:23;18.93;;;9.83;;
72649;SDS011;61467;50.674;4.618;2024-03-22T11:10:49;19.40;;;9.48;;
72649;SDS011;61467;50.674;4.618;2024-03-22T11:13:17;17.27;;;8.55;;
72649;SDS011;61467;50.674;4.618;2024-03-22T11:15:43;18.73;;;9.07;;
72649;SDS011;61467;50.674;4.618;2024-03-22T11:18:11;19.60;;;10.00;;
72649;SDS011;61467;50.674;4.618;2024-03-22T11:20:37;18.17;;;9.47;;
72649;SDS011;61467;50.674;4.618;2024-03-22T11:23:04;18.80;;;8.93;;
72649;SDS011;61467;50.674;4.618;2024-03-22T11:25:31;21.65;;;10.02;;
72649;SDS011;61467;50.674;4.618;2024-03-22T11:27:58;23.00;;;9.95;;
72649;SDS011;61467;50.674;4.618;2024-03-22T11:30:26;23.13;;;10.98;;
72649;SDS011;61467;50.674;4.618;2024-03-22T11:32:53;19.40;;;8.90;;
72649;SDS011;61467;50.674;4.618;2024-03-22T11:35:21;20.92;;;9.57;;
72649;SDS011;61467;50.674;4.618;2024-03-22T11:37:49;20.90;;;9.60;;
72649;SDS011;61467;50.674;4.618;2024-03-22T11:40:16;19.45;;;8.68;;
72649;SDS011;61467;50.674;4.618;2024-03-22T11:42:43;18.30;;;8.98;;
72649;SDS011;61467;50.674;4.618;2024-03-22T11:45:12;18.60;;;9.37;;
72649;SDS011;61467;50.674;4.618;2024-03-22T11:47:41;16.90;;;9.15;;
72649;SDS011;61467;50.674;4.618;2024-03-22T11:50:07;16.83;;;8.90;;
72649;SDS011;61467;50.674;4.618;2024-03-22T11:52:36;19.20;;;9.65;;
72649;SDS011;61467;50.674;4.618;2024-03-22T11:55:02;18.77;;;8.63;;
72649;SDS011;61467;50.674;4.618;2024-03-22T11:57:31;16.70;;;8.33;;
72649;SDS011;61467;50.674;4.618;2024-03-22T11:59:58;17.10;;;8.55;;
72649;SDS011;61467;50.674;4.618;2024-03-22T12:02:26;17.35;;;8.95;;
72649;SDS011;61467;50.674;4.618;2024-03-22T12:04:52;19.42;;;8.95;;
72649;SDS011;61467;50.674;4.618;2024-03-22T12:07:19;20.00;;;9.30;;
72649;SDS011;61467;50.674;4.618;2024-03-22T12:09:46;19.30;;;7.85;;
72649;SDS011;61467;50.674;4.618;2024-03-22T12:12:13;15.88;;;8.20;;
72649;SDS011;61467;50.674;4.618;2024-03-22T12:14:39;18.10;;;7.85;;
72649;SDS011;61467;50.674;4.618;2024-03-22T12:17:06;16.23;;;7.75;;
72649;SDS011;61467;50.674;4.618;2024-03-22T12:19:32;17.37;;;8.03;;
72649;SDS011;61467;50.674;4.618;2024-03-22T12:22:00;16.98;;;8.07;;
72649;SDS011;61467;50.674;4.618;2024-03-22T12:24:26;15.38;;;7.50;;
72649;SDS011;61467;50.674;4.618;2024-03-22T12:26:54;14.60;;;7.15;;
72649;SDS011;61467;50.674;4.618;2024-03-22T12:29:20;16.33;;;7.80;;
72649;SDS011;61467;50.674;4.618;2024-03-22T12:31:47;16.43;;;7.60;;
72649;SDS011;61467;50.674;4.618;2024-03-22T12:34:13;18.30;;;8.20;;
72649;SDS011;61467;50.674;4.618;2024-03-22T12:36:40;17.45;;;7.75;;
72649;SDS011;61467;50.674;4.618;2024-03-22T12:39:06;14.93;;;7.55;;
72649;SDS011;61467;50.674;4.618;2024-03-22T12:41:34;19.23;;;7.57;;
72649;SDS011;61467;50.674;4.618;2024-03-22T12:44:01;16.50;;;7.50;;
72649;SDS011;61467;50.674;4.618;2024-03-22T12:46:28;16.25;;;7.45;;
72649;SDS011;61467;50.674;4.618;2024-03-22T12:48:54;16.92;;;7.97;;
72649;SDS011;61467;50.674;4.618;2024-03-22T12:51:21;15.85;;;7.63;;
72649;SDS011;61467;50.674;4.618;2024-03-22T12:53:47;15.27;;;8.20;;
72649;SDS011;61467;50.674;4.618;2024-03-22T12:56:14;22.83;;;8.15;;
72649;SDS011;61467;50.674;4.618;2024-03-22T12:58:40;15.50;;;8.18;;
72649;SDS011;61467;50.674;4.618;2024-03-22T13:01:09;17.25;;;8.10;;
72649;SDS011;61467;50.674;4.618;2024-03-22T13:03:36;16.50;;;7.93;;
72649;SDS011;61467;50.674;4.618;2024-03-22T13:06:03;16.07;;;7.90;;
72649;SDS011;61467;50.674;4.618;2024-03-22T13:08:30;16.33;;;8.18;;
72649;SDS011;61467;50.674;4.618;2024-03-22T13:10:57;16.65;;;7.70;;
72649;SDS011;61467;50.674;4.618;2024-03-22T13:13:23;17.85;;;7.18;;
72649;SDS011;61467;50.674;4.618;2024-03-22T13:15:50;15.73;;;8.13;;
72649;SDS011;61467;50.674;4.618;2024-03-22T13:18:17;15.85;;;6.95;;
72649;SDS011;61467;50.674;4.618;2024-03-22T13:20:46;13.85;;;7.15;;
72649;SDS011;61467;50.674;4.618;2024-03-22T13:23:12;13.95;;;6.68;;
72649;SDS011;61467;50.674;4.618;2024-03-22T13:25:39;14.03;;;6.40;;
72649;SDS011;61467;50.674;4.618;2024-03-22T13:28:05;15.65;;;7.28;;
72649;SDS011;61467;50.674;4.618;2024-03-22T13:30:32;16.50;;;7.70;;
72649;SDS011;61467;50.674;4.618;2024-03-22T13:33:00;15.10;;;7.50;;
72649;SDS011;61467;50.674;4.618;2024-03-22T13:35:28;13.80;;;7.78;;
72649;SDS011;61467;50.674;4.618;2024-03-22T13:37:54;16.07;;;6.53;;
72649;SDS011;61467;50.674;4.618;2024-03-22T13:40:21;13.73;;;7.57;;
72649;SDS011;61467;50.674;4.618;2024-03-22T13:42:47;14.68;;;7.50;;
72649;SDS011;61467;50.674;4.618;2024-03-22T13:45:14;14.10;;;7.00;;
72649;SDS011;61467;50.674;4.618;2024-03-22T13:47:40;12.80;;;6.10;;
72649;SDS011;61467;50.674;4.618;2024-03-22T13:50:07;14.70;;;6.95;;
72649;SDS011;61467;50.674;4.618;2024-03-22T13:52:35;12.98;;;6.55;;
72649;SDS011;61467;50.674;4.618;2024-03-22T13:55:02;17.23;;;7.68;;
72649;SDS011;61467;50.674;4.618;2024-03-22T13:57:29;15.30;;;7.43;;
72649;SDS011;61467;50.674;4.618;2024-03-22T13:59:57;14.63;;;6.43;;
72649;SDS011;61467;50.674;4.618;2024-03-22T14:02:23;13.93;;;6.70;;
72649;SDS011;61467;50.674;4.618;2024-03-22T14:04:50;19.70;;;7.72;;
72649;SDS011;61467;50.674;4.618;2024-03-22T14:07:16;16.35;;;7.68;;
72649;SDS011;61467;50.674;4.618;2024-03-22T14:09:44;13.70;;;7.05;;
72649;SDS011;61467;50.674;4.618;2024-03-22T14:12:10;13.73;;;6.57;;
72649;SDS011;61467;50.674;4.618;2024-03-22T14:14:37;14.43;;;6.50;;
72649;SDS011;61467;50.674;4.618;2024-03-22T14:17:03;13.50;;;6.32;;
72649;SDS011;61467;50.674;4.618;2024-03-22T14:19:30;13.15;;;6.03;;
72649;SDS011;61467;50.674;4.618;2024-03-22T14:21:56;14.67;;;6.03;;
72649;SDS011;61467;50.674;4.618;2024-03-22T14:24:23;13.07;;;6.55;;